sensor_id;sensor_type;location;lat;lon;timestamp;P1;durP1;ratioP1;P2;durP2;ratioP2
17592;SDS011;8915;51.760;14.300;2023-02-18T00:00:12;2.27;;;0.90;;
17592;SDS011;8915;51.760;14.300;2023-02-18T00:02:41;3.30;;;0.77;;
17592;SDS011;8915;51.760;14.300;2023-02-18T00:05:07;0.90;;;0.53;;
17592;SDS011;8915;51.760;14.300;2023-02-18T00:07:34;6.83;;;0.90;;
17592;SDS011;8915;51.760;14.300;2023-02-18T00:10:02;3.97;;;0.90;;
17592;SDS011;8915;51.760;14.300;2023-02-18T00:12:29;2.73;;;0.80;;
17592;SDS011;8915;51.760;14.300;2023-02-18T00:14:57;2.73;;;0.70;;
17592;SDS011;8915;51.760;14.300;2023-02-18T00:17:24;1.90;;;0.83;;
17592;SDS011;8915;51.760;14.300;2023-02-18T00:19:51;1.60;;;0.53;;
17592;SDS011;8915;51.760;14.300;2023-02-18T00:22:17;2.37;;;0.63;;
17592;SDS011;8915;51.760;14.300;2023-02-18T00:24:43;2.13;;;0.80;;
17592;SDS011;8915;51.760;14.300;2023-02-18T00:27:10;2.27;;;0.70;;
17592;SDS011;8915;51.760;14.300;2023-02-18T00:29:36;1.80;;;0.80;;
17592;SDS011;8915;51.760;14.300;2023-02-18T00:32:05;1.70;;;0.90;;
17592;SDS011;8915;51.760;14.300;2023-02-18T00:34:32;4.97;;;1.30;;
17592;SDS011;8915;51.760;14.300;2023-02-18T00:37:01;2.33;;;1.10;;
17592;SDS011;8915;51.760;14.300;2023-02-18T00:39:28;2.63;;;0.87;;
17592;SDS011;8915;51.760;14.300;2023-02-18T00:41:55;1.63;;;0.57;;
17592;SDS011;8915;51.760;14.300;2023-02-18T00:44:21;4.10;;;0.97;;
17592;SDS011;8915;51.760;14.300;2023-02-18T00:46:48;4.03;;;1.17;;
17592;SDS011;8915;51.760;14.300;2023-02-18T00:49:16;2.17;;;0.90;;
17592;SDS011;8915;51.760;14.300;2023-02-18T00:51:43;2.73;;;0.90;;
17592;SDS011;8915;51.760;14.300;2023-02-18T00:54:09;2.67;;;0.70;;
17592;SDS011;8915;51.760;14.300;2023-02-18T00:56:35;4.80;;;0.73;;
17592;SDS011;8915;51.760;14.300;2023-02-18T00:59:02;2.50;;;0.70;;
17592;SDS011;8915;51.760;14.300;2023-02-18T01:01:29;3.00;;;1.00;;
17592;SDS011;8915;51.760;14.300;2023-02-18T01:03:55;2.90;;;1.07;;
17592;SDS011;8915;51.760;14.300;2023-02-18T01:06:23;3.53;;;0.90;;
17592;SDS011;8915;51.760;14.300;2023-02-18T01:08:49;4.60;;;1.00;;
17592;SDS011;8915;51.760;14.300;2023-02-18T01:11:15;2.80;;;0.83;;
17592;SDS011;8915;51.760;14.300;2023-02-18T01:13:42;2.47;;;0.60;;
17592;SDS011;8915;51.760;14.300;2023-02-18T01:16:09;1.47;;;0.70;;
17592;SDS011;8915;51.760;14.300;2023-02-18T01:18:35;4.50;;;0.80;;
17592;SDS011;8915;51.760;14.300;2023-02-18T01:21:03;3.63;;;1.03;;
17592;SDS011;8915;51.760;14.300;2023-02-18T01:23:35;6.10;;;1.43;;
17592;SDS011;8915;51.760;14.300;2023-02-18T01:26:02;3.30;;;0.77;;
17592;SDS011;8915;51.760;14.300;2023-02-18T01:28:29;2.40;;;0.60;;
17592;SDS011;8915;51.760;14.300;2023-02-18T01:30:56;2.43;;;0.87;;
17592;SDS011;8915;51.760;14.300;2023-02-18T01:33:24;1.07;;;0.60;;
17592;SDS011;8915;51.760;14.300;2023-02-18T01:35:51;3.97;;;1.27;;
17592;SDS011;8915;51.760;14.300;2023-02-18T01:38:21;2.70;;;1.00;;
17592;SDS011;8915;51.760;14.300;2023-02-18T01:40:50;6.20;;;1.27;;
17592;SDS011;8915;51.760;14.300;2023-02-18T01:43:19;1.67;;;0.70;;
17592;SDS011;8915;51.760;14.300;2023-02-18T01:45:48;1.47;;;0.73;;
17592;SDS011;8915;51.760;14.300;2023-02-18T01:48:24;3.37;;;1.27;;
17592;SDS011;8915;51.760;14.300;2023-02-18T01:50:53;3.67;;;1.00;;
17592;SDS011;8915;51.760;14.300;2023-02-18T01:53:23;2.53;;;0.80;;
17592;SDS011;8915;51.760;14.300;2023-02-18T01:55:54;1.53;;;0.87;;
17592;SDS011;8915;51.760;14.300;2023-02-18T01:58:23;5.20;;;1.00;;
17592;SDS011;8915;51.760;14.300;2023-02-18T02:00:49;4.87;;;0.50;;
17592;SDS011;8915;51.760;14.300;2023-02-18T02:03:16;3.80;;;0.80;;
17592;SDS011;8915;51.760;14.300;2023-02-18T02:05:42;3.77;;;0.80;;
17592;SDS011;8915;51.760;14.300;2023-02-18T02:08:13;2.50;;;0.83;;
17592;SDS011;8915;51.760;14.300;2023-02-18T02:10:52;1.67;;;0.60;;
17592;SDS011;8915;51.760;14.300;2023-02-18T02:13:32;4.50;;;0.80;;
17592;SDS011;8915;51.760;14.300;2023-02-18T02:16:10;5.93;;;1.00;;
17592;SDS011;8915;51.760;14.300;2023-02-18T02:18:48;2.40;;;0.87;;
17592;SDS011;8915;51.760;14.300;2023-02-18T02:27:23;4.30;;;0.80;;
17592;SDS011;8915;51.760;14.300;2023-02-18T02:36:15;4.20;;;1.00;;
17592;SDS011;8915;51.760;14.300;2023-02-18T02:38:49;5.70;;;0.77;;
17592;SDS011;8915;51.760;14.300;2023-02-18T02:41:24;2.37;;;0.73;;
17592;SDS011;8915;51.760;14.300;2023-02-18T02:44:01;1.77;;;0.90;;
17592;SDS011;8915;51.760;14.300;2023-02-18T02:46:38;2.33;;;1.07;;
17592;SDS011;8915;51.760;14.300;2023-02-18T02:49:12;4.97;;;1.07;;
17592;SDS011;8915;51.760;14.300;2023-02-18T02:51:52;4.33;;;0.90;;
17592;SDS011;8915;51.760;14.300;2023-02-18T02:54:26;4.03;;;0.80;;
17592;SDS011;8915;51.760;14.300;2023-02-18T02:57:05;3.63;;;1.17;;
17592;SDS011;8915;51.760;14.300;2023-02-18T02:59:36;3.53;;;1.00;;
17592;SDS011;8915;51.760;14.300;2023-02-18T03:02:10;2.63;;;0.73;;
17592;SDS011;8915;51.760;14.300;2023-02-18T03:04:51;4.10;;;0.93;;
17592;SDS011;8915;51.760;14.300;2023-02-18T03:07:36;4.63;;;1.03;;
17592;SDS011;8915;51.760;14.300;2023-02-18T03:10:16;2.83;;;1.13;;
17592;SDS011;8915;51.760;14.300;2023-02-18T03:12:52;1.20;;;0.60;;
17592;SDS011;8915;51.760;14.300;2023-02-18T03:15:29;2.10;;;0.90;;
17592;SDS011;8915;51.760;14.300;2023-02-18T03:18:04;1.70;;;0.80;;
17592;SDS011;8915;51.760;14.300;2023-02-18T03:20:39;5.30;;;0.67;;
17592;SDS011;8915;51.760;14.300;2023-02-18T03:23:14;3.23;;;0.93;;
17592;SDS011;8915;51.760;14.300;2023-02-18T03:25:45;5.67;;;0.77;;
17592;SDS011;8915;51.760;14.300;2023-02-18T03:28:13;1.50;;;0.40;;
17592;SDS011;8915;51.760;14.300;2023-02-18T03:30:45;2.20;;;0.60;;
17592;SDS011;8915;51.760;14.300;2023-02-18T03:33:16;3.27;;;0.97;;
17592;SDS011;8915;51.760;14.300;2023-02-18T03:35:49;4.53;;;0.90;;
17592;SDS011;8915;51.760;14.300;2023-02-18T03:38:17;2.10;;;0.50;;
17592;SDS011;8915;51.760;14.300;2023-02-18T03:40:49;2.77;;;0.80;;
17592;SDS011;8915;51.760;14.300;2023-02-18T03:43:15;2.93;;;0.83;;
17592;SDS011;8915;51.760;14.300;2023-02-18T03:45:42;3.30;;;0.87;;
17592;SDS011;8915;51.760;14.300;2023-02-18T03:48:09;3.13;;;0.90;;
17592;SDS011;8915;51.760;14.300;2023-02-18T03:50:35;2.00;;;0.63;;
17592;SDS011;8915;51.760;14.300;2023-02-18T03:53:02;2.00;;;0.67;;
17592;SDS011;8915;51.760;14.300;2023-02-18T03:55:29;3.20;;;0.70;;
17592;SDS011;8915;51.760;14.300;2023-02-18T03:57:56;3.90;;;1.00;;
17592;SDS011;8915;51.760;14.300;2023-02-18T04:00:22;2.33;;;0.77;;
17592;SDS011;8915;51.760;14.300;2023-02-18T04:02:49;2.70;;;0.97;;
17592;SDS011;8915;51.760;14.300;2023-02-18T04:05:16;2.33;;;0.73;;
17592;SDS011;8915;51.760;14.300;2023-02-18T04:07:42;4.23;;;0.50;;
17592;SDS011;8915;51.760;14.300;2023-02-18T04:10:09;4.17;;;0.53;;
17592;SDS011;8915;51.760;14.300;2023-02-18T04:12:37;1.83;;;0.70;;
17592;SDS011;8915;51.760;14.300;2023-02-18T04:15:03;4.53;;;0.80;;
17592;SDS011;8915;51.760;14.300;2023-02-18T04:17:31;1.80;;;0.83;;
17592;SDS011;8915;51.760;14.300;2023-02-18T04:19:58;3.63;;;1.07;;
17592;SDS011;8915;51.760;14.300;2023-02-18T04:22:24;3.00;;;0.70;;
17592;SDS011;8915;51.760;14.300;2023-02-18T04:24:51;4.70;;;1.07;;
17592;SDS011;8915;51.760;14.300;2023-02-18T04:27:17;2.17;;;0.90;;
17592;SDS011;8915;51.760;14.300;2023-02-18T04:29:47;1.13;;;0.57;;
17592;SDS011;8915;51.760;14.300;2023-02-18T04:32:13;3.50;;;0.53;;
17592;SDS011;8915;51.760;14.300;2023-02-18T04:34:39;1.77;;;0.47;;
17592;SDS011;8915;51.760;14.300;2023-02-18T04:37:06;1.30;;;0.53;;
17592;SDS011;8915;51.760;14.300;2023-02-18T04:39:32;1.20;;;0.77;;
17592;SDS011;8915;51.760;14.300;2023-02-18T04:41:59;2.23;;;0.60;;
17592;SDS011;8915;51.760;14.300;2023-02-18T04:44:26;7.67;;;0.97;;
17592;SDS011;8915;51.760;14.300;2023-02-18T04:46:54;2.90;;;0.73;;
17592;SDS011;8915;51.760;14.300;2023-02-18T04:49:20;2.57;;;0.80;;
17592;SDS011;8915;51.760;14.300;2023-02-18T04:51:47;4.27;;;0.80;;
17592;SDS011;8915;51.760;14.300;2023-02-18T04:54:13;3.10;;;0.80;;
17592;SDS011;8915;51.760;14.300;2023-02-18T04:56:39;1.97;;;0.60;;
17592;SDS011;8915;51.760;14.300;2023-02-18T04:59:06;2.67;;;0.60;;
17592;SDS011;8915;51.760;14.300;2023-02-18T05:01:32;1.50;;;0.90;;
17592;SDS011;8915;51.760;14.300;2023-02-18T05:04:00;2.83;;;0.77;;
17592;SDS011;8915;51.760;14.300;2023-02-18T05:06:28;1.60;;;0.70;;
17592;SDS011;8915;51.760;14.300;2023-02-18T05:08:54;1.90;;;0.57;;
17592;SDS011;8915;51.760;14.300;2023-02-18T05:11:20;3.00;;;0.80;;
17592;SDS011;8915;51.760;14.300;2023-02-18T05:13:47;2.87;;;0.70;;
17592;SDS011;8915;51.760;14.300;2023-02-18T05:16:13;4.20;;;0.60;;
17592;SDS011;8915;51.760;14.300;2023-02-18T05:18:40;2.60;;;0.70;;
17592;SDS011;8915;51.760;14.300;2023-02-18T05:21:07;2.90;;;0.83;;
17592;SDS011;8915;51.760;14.300;2023-02-18T05:23:36;1.83;;;1.00;;
17592;SDS011;8915;51.760;14.300;2023-02-18T05:26:02;5.13;;;1.13;;
17592;SDS011;8915;51.760;14.300;2023-02-18T05:28:29;1.30;;;0.50;;
17592;SDS011;8915;51.760;14.300;2023-02-18T05:30:56;1.13;;;0.43;;
17592;SDS011;8915;51.760;14.300;2023-02-18T05:33:22;4.50;;;0.80;;
17592;SDS011;8915;51.760;14.300;2023-02-18T05:35:49;2.13;;;0.70;;
17592;SDS011;8915;51.760;14.300;2023-02-18T05:38:16;4.37;;;0.87;;
17592;SDS011;8915;51.760;14.300;2023-02-18T05:40:43;3.03;;;0.73;;
17592;SDS011;8915;51.760;14.300;2023-02-18T05:43:09;2.53;;;0.60;;
17592;SDS011;8915;51.760;14.300;2023-02-18T05:45:36;3.73;;;0.67;;
17592;SDS011;8915;51.760;14.300;2023-02-18T05:48:03;0.80;;;0.60;;
17592;SDS011;8915;51.760;14.300;2023-02-18T05:50:29;3.40;;;1.03;;
17592;SDS011;8915;51.760;14.300;2023-02-18T05:52:56;0.77;;;0.37;;
17592;SDS011;8915;51.760;14.300;2023-02-18T05:55:23;1.20;;;0.50;;
17592;SDS011;8915;51.760;14.300;2023-02-18T05:57:50;1.80;;;0.70;;
17592;SDS011;8915;51.760;14.300;2023-02-18T06:02:43;3.80;;;1.43;;
17592;SDS011;8915;51.760;14.300;2023-02-18T06:05:10;4.47;;;1.20;;
17592;SDS011;8915;51.760;14.300;2023-02-18T06:07:36;2.53;;;1.00;;
17592;SDS011;8915;51.760;14.300;2023-02-18T06:10:03;1.33;;;0.70;;
17592;SDS011;8915;51.760;14.300;2023-02-18T06:12:32;1.53;;;0.57;;
17592;SDS011;8915;51.760;14.300;2023-02-18T06:14:58;1.40;;;0.63;;
17592;SDS011;8915;51.760;14.300;2023-02-18T06:17:25;3.33;;;0.97;;
17592;SDS011;8915;51.760;14.300;2023-02-18T06:19:51;2.00;;;0.80;;
17592;SDS011;8915;51.760;14.300;2023-02-18T06:22:18;0.93;;;0.50;;
17592;SDS011;8915;51.760;14.300;2023-02-18T06:24:44;1.40;;;0.50;;
17592;SDS011;8915;51.760;14.300;2023-02-18T06:27:10;2.03;;;1.00;;
17592;SDS011;8915;51.760;14.300;2023-02-18T06:29:38;4.20;;;0.73;;
17592;SDS011;8915;51.760;14.300;2023-02-18T06:32:05;3.33;;;0.80;;
17592;SDS011;8915;51.760;14.300;2023-02-18T06:34:31;4.07;;;1.37;;
17592;SDS011;8915;51.760;14.300;2023-02-18T06:36:58;1.67;;;0.70;;
17592;SDS011;8915;51.760;14.300;2023-02-18T06:39:24;0.57;;;0.50;;
17592;SDS011;8915;51.760;14.300;2023-02-18T06:41:50;0.73;;;0.60;;
17592;SDS011;8915;51.760;14.300;2023-02-18T06:44:17;1.67;;;0.70;;
17592;SDS011;8915;51.760;14.300;2023-02-18T06:46:45;1.33;;;0.60;;
17592;SDS011;8915;51.760;14.300;2023-02-18T06:49:11;2.40;;;0.83;;
17592;SDS011;8915;51.760;14.300;2023-02-18T06:51:38;2.73;;;0.73;;
17592;SDS011;8915;51.760;14.300;2023-02-18T06:54:04;2.90;;;0.80;;
17592;SDS011;8915;51.760;14.300;2023-02-18T06:56:31;3.60;;;0.70;;
17592;SDS011;8915;51.760;14.300;2023-02-18T06:58:57;1.13;;;0.60;;
17592;SDS011;8915;51.760;14.300;2023-02-18T07:01:24;2.70;;;0.60;;
17592;SDS011;8915;51.760;14.300;2023-02-18T07:03:52;3.27;;;0.83;;
17592;SDS011;8915;51.760;14.300;2023-02-18T07:06:18;1.23;;;0.67;;
17592;SDS011;8915;51.760;14.300;2023-02-18T07:08:45;2.83;;;0.63;;
17592;SDS011;8915;51.760;14.300;2023-02-18T07:11:11;1.97;;;0.57;;
17592;SDS011;8915;51.760;14.300;2023-02-18T07:13:37;2.13;;;0.50;;
17592;SDS011;8915;51.760;14.300;2023-02-18T07:16:04;2.03;;;0.97;;
17592;SDS011;8915;51.760;14.300;2023-02-18T07:18:30;3.43;;;0.83;;
17592;SDS011;8915;51.760;14.300;2023-02-18T07:20:58;2.37;;;0.73;;
17592;SDS011;8915;51.760;14.300;2023-02-18T07:23:24;1.03;;;0.70;;
17592;SDS011;8915;51.760;14.300;2023-02-18T07:25:51;2.83;;;0.80;;
17592;SDS011;8915;51.760;14.300;2023-02-18T07:28:18;2.77;;;0.93;;
17592;SDS011;8915;51.760;14.300;2023-02-18T07:30:44;3.30;;;0.87;;
17592;SDS011;8915;51.760;14.300;2023-02-18T07:33:11;2.80;;;0.97;;
17592;SDS011;8915;51.760;14.300;2023-02-18T07:35:38;2.27;;;0.80;;
17592;SDS011;8915;51.760;14.300;2023-02-18T07:38:06;1.87;;;0.60;;
17592;SDS011;8915;51.760;14.300;2023-02-18T07:40:32;4.77;;;0.80;;
17592;SDS011;8915;51.760;14.300;2023-02-18T07:42:58;1.60;;;0.70;;
17592;SDS011;8915;51.760;14.300;2023-02-18T07:45:25;2.47;;;0.80;;
17592;SDS011;8915;51.760;14.300;2023-02-18T07:47:51;3.53;;;0.87;;
17592;SDS011;8915;51.760;14.300;2023-02-18T07:50:17;1.47;;;0.70;;
17592;SDS011;8915;51.760;14.300;2023-02-18T07:52:44;0.70;;;0.70;;
17592;SDS011;8915;51.760;14.300;2023-02-18T07:55:12;1.63;;;0.77;;
17592;SDS011;8915;51.760;14.300;2023-02-18T07:57:38;0.93;;;0.70;;
17592;SDS011;8915;51.760;14.300;2023-02-18T08:00:19;1.80;;;0.80;;
17592;SDS011;8915;51.760;14.300;2023-02-18T08:02:45;1.17;;;0.70;;
17592;SDS011;8915;51.760;14.300;2023-02-18T08:05:12;1.57;;;0.57;;
17592;SDS011;8915;51.760;14.300;2023-02-18T08:07:38;3.30;;;0.70;;
17592;SDS011;8915;51.760;14.300;2023-02-18T08:10:06;1.10;;;0.87;;
17592;SDS011;8915;51.760;14.300;2023-02-18T08:12:33;5.50;;;1.17;;
17592;SDS011;8915;51.760;14.300;2023-02-18T08:15:00;5.17;;;0.80;;
17592;SDS011;8915;51.760;14.300;2023-02-18T08:17:26;3.43;;;1.40;;
17592;SDS011;8915;51.760;14.300;2023-02-18T08:19:52;4.90;;;1.93;;
17592;SDS011;8915;51.760;14.300;2023-02-18T08:22:19;4.00;;;2.10;;
17592;SDS011;8915;51.760;14.300;2023-02-18T08:24:45;6.33;;;3.50;;
17592;SDS011;8915;51.760;14.300;2023-02-18T08:27:12;4.03;;;2.07;;
17592;SDS011;8915;51.760;14.300;2023-02-18T08:29:40;4.60;;;1.50;;
17592;SDS011;8915;51.760;14.300;2023-02-18T08:32:06;1.27;;;0.67;;
17592;SDS011;8915;51.760;14.300;2023-02-18T08:34:32;1.67;;;0.93;;
17592;SDS011;8915;51.760;14.300;2023-02-18T08:37:00;2.53;;;1.00;;
17592;SDS011;8915;51.760;14.300;2023-02-18T08:39:26;3.37;;;1.20;;
17592;SDS011;8915;51.760;14.300;2023-02-18T08:41:53;2.50;;;1.00;;
17592;SDS011;8915;51.760;14.300;2023-02-18T08:44:20;3.70;;;1.73;;
17592;SDS011;8915;51.760;14.300;2023-02-18T08:46:48;1.73;;;0.93;;
17592;SDS011;8915;51.760;14.300;2023-02-18T08:49:15;2.50;;;0.70;;
17592;SDS011;8915;51.760;14.300;2023-02-18T08:51:42;2.37;;;0.80;;
17592;SDS011;8915;51.760;14.300;2023-02-18T08:54:10;1.27;;;0.80;;
17592;SDS011;8915;51.760;14.300;2023-02-18T08:56:36;1.07;;;0.80;;
17592;SDS011;8915;51.760;14.300;2023-02-18T08:59:03;2.00;;;1.20;;
17592;SDS011;8915;51.760;14.300;2023-02-18T09:01:30;3.50;;;1.60;;
17592;SDS011;8915;51.760;14.300;2023-02-18T09:03:58;4.17;;;1.10;;
17592;SDS011;8915;51.760;14.300;2023-02-18T09:06:25;1.07;;;0.70;;
17592;SDS011;8915;51.760;14.300;2023-02-18T09:08:51;1.40;;;0.90;;
17592;SDS011;8915;51.760;14.300;2023-02-18T09:11:18;8.43;;;1.20;;
17592;SDS011;8915;51.760;14.300;2023-02-18T09:13:45;1.80;;;1.40;;
17592;SDS011;8915;51.760;14.300;2023-02-18T09:16:12;2.00;;;1.20;;
17592;SDS011;8915;51.760;14.300;2023-02-18T09:18:42;2.30;;;0.93;;
17592;SDS011;8915;51.760;14.300;2023-02-18T09:21:11;3.57;;;1.10;;
17592;SDS011;8915;51.760;14.300;2023-02-18T09:23:39;3.13;;;1.60;;
17592;SDS011;8915;51.760;14.300;2023-02-18T09:26:07;3.50;;;1.00;;
17592;SDS011;8915;51.760;14.300;2023-02-18T09:28:38;5.00;;;1.10;;
17592;SDS011;8915;51.760;14.300;2023-02-18T09:31:05;4.10;;;1.30;;
17592;SDS011;8915;51.760;14.300;2023-02-18T09:33:33;1.70;;;1.10;;
17592;SDS011;8915;51.760;14.300;2023-02-18T09:36:02;5.63;;;2.00;;
17592;SDS011;8915;51.760;14.300;2023-02-18T09:38:30;5.77;;;1.40;;
17592;SDS011;8915;51.760;14.300;2023-02-18T09:40:56;6.77;;;1.77;;
17592;SDS011;8915;51.760;14.300;2023-02-18T09:43:28;1.77;;;1.13;;
17592;SDS011;8915;51.760;14.300;2023-02-18T09:45:59;1.43;;;1.27;;
17592;SDS011;8915;51.760;14.300;2023-02-18T09:48:29;3.43;;;1.73;;
17592;SDS011;8915;51.760;14.300;2023-02-18T09:50:58;4.20;;;1.23;;
17592;SDS011;8915;51.760;14.300;2023-02-18T09:53:25;3.07;;;1.30;;
17592;SDS011;8915;51.760;14.300;2023-02-18T09:55:54;4.37;;;1.40;;
17592;SDS011;8915;51.760;14.300;2023-02-18T09:58:23;2.60;;;1.20;;
17592;SDS011;8915;51.760;14.300;2023-02-18T10:00:52;2.70;;;1.40;;
17592;SDS011;8915;51.760;14.300;2023-02-18T10:03:26;3.27;;;1.50;;
17592;SDS011;8915;51.760;14.300;2023-02-18T10:05:55;1.07;;;0.93;;
17592;SDS011;8915;51.760;14.300;2023-02-18T10:08:24;3.27;;;1.70;;
17592;SDS011;8915;51.760;14.300;2023-02-18T10:10:53;4.10;;;2.13;;
17592;SDS011;8915;51.760;14.300;2023-02-18T10:13:21;3.50;;;1.50;;
17592;SDS011;8915;51.760;14.300;2023-02-18T10:15:49;2.10;;;1.60;;
17592;SDS011;8915;51.760;14.300;2023-02-18T10:18:19;3.37;;;1.47;;
17592;SDS011;8915;51.760;14.300;2023-02-18T10:20:51;1.93;;;1.50;;
17592;SDS011;8915;51.760;14.300;2023-02-18T10:23:21;2.63;;;1.87;;
17592;SDS011;8915;51.760;14.300;2023-02-18T10:25:50;4.23;;;1.90;;
17592;SDS011;8915;51.760;14.300;2023-02-18T10:28:18;7.57;;;4.33;;
17592;SDS011;8915;51.760;14.300;2023-02-18T10:30:51;5.67;;;3.40;;
17592;SDS011;8915;51.760;14.300;2023-02-18T10:33:26;4.47;;;1.67;;
17592;SDS011;8915;51.760;14.300;2023-02-18T10:36:01;2.50;;;1.67;;
17592;SDS011;8915;51.760;14.300;2023-02-18T10:38:35;2.80;;;1.67;;
17592;SDS011;8915;51.760;14.300;2023-02-18T10:41:10;3.37;;;2.00;;
17592;SDS011;8915;51.760;14.300;2023-02-18T10:43:47;3.40;;;1.63;;
17592;SDS011;8915;51.760;14.300;2023-02-18T10:46:25;2.07;;;1.40;;
17592;SDS011;8915;51.760;14.300;2023-02-18T10:49:02;2.70;;;1.50;;
17592;SDS011;8915;51.760;14.300;2023-02-18T10:51:40;1.93;;;1.67;;
17592;SDS011;8915;51.760;14.300;2023-02-18T10:54:13;2.60;;;1.70;;
17592;SDS011;8915;51.760;14.300;2023-02-18T10:56:40;2.57;;;2.10;;
17592;SDS011;8915;51.760;14.300;2023-02-18T10:59:14;5.23;;;1.97;;
17592;SDS011;8915;51.760;14.300;2023-02-18T11:01:44;4.57;;;2.13;;
17592;SDS011;8915;51.760;14.300;2023-02-18T11:04:18;2.40;;;2.13;;
17592;SDS011;8915;51.760;14.300;2023-02-18T11:06:46;1.70;;;1.60;;
17592;SDS011;8915;51.760;14.300;2023-02-18T11:09:28;2.53;;;1.67;;
17592;SDS011;8915;51.760;14.300;2023-02-18T11:12:06;1.63;;;1.23;;
17592;SDS011;8915;51.760;14.300;2023-02-18T11:14:42;1.63;;;1.50;;
17592;SDS011;8915;51.760;14.300;2023-02-18T11:17:15;2.03;;;1.40;;
17592;SDS011;8915;51.760;14.300;2023-02-18T11:19:50;2.43;;;1.40;;
17592;SDS011;8915;51.760;14.300;2023-02-18T11:22:22;2.00;;;1.47;;
17592;SDS011;8915;51.760;14.300;2023-02-18T11:24:54;4.13;;;2.07;;
17592;SDS011;8915;51.760;14.300;2023-02-18T11:27:23;3.93;;;2.63;;
17592;SDS011;8915;51.760;14.300;2023-02-18T11:29:56;2.67;;;2.23;;
17592;SDS011;8915;51.760;14.300;2023-02-18T11:32:27;3.90;;;2.30;;
17592;SDS011;8915;51.760;14.300;2023-02-18T11:34:55;3.80;;;2.80;;
17592;SDS011;8915;51.760;14.300;2023-02-18T11:37:22;2.93;;;2.50;;
17592;SDS011;8915;51.760;14.300;2023-02-18T11:39:49;3.10;;;2.70;;
17592;SDS011;8915;51.760;14.300;2023-02-18T11:42:18;5.50;;;3.70;;
17592;SDS011;8915;51.760;14.300;2023-02-18T11:44:48;5.10;;;3.10;;
17592;SDS011;8915;51.760;14.300;2023-02-18T11:47:26;2.10;;;1.90;;
17592;SDS011;8915;51.760;14.300;2023-02-18T11:50:15;3.00;;;2.33;;
17592;SDS011;8915;51.760;14.300;2023-02-18T11:52:47;15.77;;;7.80;;
17592;SDS011;8915;51.760;14.300;2023-02-18T11:55:16;16.43;;;8.27;;
17592;SDS011;8915;51.760;14.300;2023-02-18T11:57:45;9.83;;;6.50;;
17592;SDS011;8915;51.760;14.300;2023-02-18T12:00:17;4.47;;;3.23;;
17592;SDS011;8915;51.760;14.300;2023-02-18T12:02:48;6.07;;;3.70;;
17592;SDS011;8915;51.760;14.300;2023-02-18T12:05:16;5.00;;;3.23;;
17592;SDS011;8915;51.760;14.300;2023-02-18T12:07:46;5.07;;;3.23;;
17592;SDS011;8915;51.760;14.300;2023-02-18T12:10:18;3.53;;;2.90;;
17592;SDS011;8915;51.760;14.300;2023-02-18T12:12:49;3.70;;;3.07;;
17592;SDS011;8915;51.760;14.300;2023-02-18T12:15:21;4.40;;;3.70;;
17592;SDS011;8915;51.760;14.300;2023-02-18T12:18:00;6.67;;;5.00;;
17592;SDS011;8915;51.760;14.300;2023-02-18T12:20:45;5.10;;;3.90;;
17592;SDS011;8915;51.760;14.300;2023-02-18T12:23:21;3.70;;;3.27;;
17592;SDS011;8915;51.760;14.300;2023-02-18T12:25:58;6.67;;;3.93;;
17592;SDS011;8915;51.760;14.300;2023-02-18T12:28:37;3.33;;;3.03;;
17592;SDS011;8915;51.760;14.300;2023-02-18T12:31:21;5.07;;;3.63;;
17592;SDS011;8915;51.760;14.300;2023-02-18T12:34:04;4.23;;;3.03;;
17592;SDS011;8915;51.760;14.300;2023-02-18T12:36:46;8.17;;;4.00;;
17592;SDS011;8915;51.760;14.300;2023-02-18T12:39:29;4.43;;;3.40;;
17592;SDS011;8915;51.760;14.300;2023-02-18T12:42:17;3.57;;;3.03;;
17592;SDS011;8915;51.760;14.300;2023-02-18T12:44:58;6.07;;;3.33;;
17592;SDS011;8915;51.760;14.300;2023-02-18T12:47:57;4.73;;;3.10;;
17592;SDS011;8915;51.760;14.300;2023-02-18T12:53:37;2.97;;;2.63;;
17592;SDS011;8915;51.760;14.300;2023-02-18T12:56:20;3.17;;;2.60;;
17592;SDS011;8915;51.760;14.300;2023-02-18T12:59:15;2.97;;;2.30;;
17592;SDS011;8915;51.760;14.300;2023-02-18T13:02:01;3.83;;;2.00;;
17592;SDS011;8915;51.760;14.300;2023-02-18T13:04:40;1.77;;;1.60;;
17592;SDS011;8915;51.760;14.300;2023-02-18T13:07:31;3.00;;;1.80;;
17592;SDS011;8915;51.760;14.300;2023-02-18T13:13:06;2.80;;;1.30;;
17592;SDS011;8915;51.760;14.300;2023-02-18T13:15:37;3.13;;;1.63;;
17592;SDS011;8915;51.760;14.300;2023-02-18T13:18:09;3.07;;;2.57;;
17592;SDS011;8915;51.760;14.300;2023-02-18T13:20:39;1.20;;;1.10;;
17592;SDS011;8915;51.760;14.300;2023-02-18T13:23:10;1.40;;;1.30;;
17592;SDS011;8915;51.760;14.300;2023-02-18T13:25:43;2.07;;;1.97;;
17592;SDS011;8915;51.760;14.300;2023-02-18T13:28:14;1.47;;;1.37;;
17592;SDS011;8915;51.760;14.300;2023-02-18T13:30:46;1.07;;;1.00;;
17592;SDS011;8915;51.760;14.300;2023-02-18T13:33:18;1.70;;;1.40;;
17592;SDS011;8915;51.760;14.300;2023-02-18T13:35:53;1.70;;;1.20;;
17592;SDS011;8915;51.760;14.300;2023-02-18T13:38:44;1.60;;;1.23;;
17592;SDS011;8915;51.760;14.300;2023-02-18T13:41:17;1.53;;;1.00;;
17592;SDS011;8915;51.760;14.300;2023-02-18T13:43:44;1.50;;;1.00;;
17592;SDS011;8915;51.760;14.300;2023-02-18T13:46:12;0.90;;;0.90;;
17592;SDS011;8915;51.760;14.300;2023-02-18T13:48:43;1.00;;;0.90;;
17592;SDS011;8915;51.760;14.300;2023-02-18T13:51:13;0.80;;;0.80;;
17592;SDS011;8915;51.760;14.300;2023-02-18T13:53:42;0.63;;;0.60;;
17592;SDS011;8915;51.760;14.300;2023-02-18T13:56:18;0.80;;;0.80;;
17592;SDS011;8915;51.760;14.300;2023-02-18T13:58:50;1.00;;;0.90;;
17592;SDS011;8915;51.760;14.300;2023-02-18T14:01:21;1.10;;;0.80;;
17592;SDS011;8915;51.760;14.300;2023-02-18T14:03:57;0.90;;;0.80;;
17592;SDS011;8915;51.760;14.300;2023-02-18T14:06:26;0.80;;;0.80;;
17592;SDS011;8915;51.760;14.300;2023-02-18T14:09:15;0.70;;;0.70;;
17592;SDS011;8915;51.760;14.300;2023-02-18T14:12:15;1.10;;;1.00;;
17592;SDS011;8915;51.760;14.300;2023-02-18T14:14:49;0.83;;;0.70;;
17592;SDS011;8915;51.760;14.300;2023-02-18T14:26:17;1.30;;;1.20;;
17592;SDS011;8915;51.760;14.300;2023-02-18T14:28:49;1.20;;;0.93;;
17592;SDS011;8915;51.760;14.300;2023-02-18T14:31:27;1.00;;;0.90;;
17592;SDS011;8915;51.760;14.300;2023-02-18T14:34:12;0.80;;;0.80;;
17592;SDS011;8915;51.760;14.300;2023-02-18T14:36:54;1.10;;;0.80;;
17592;SDS011;8915;51.760;14.300;2023-02-18T14:39:33;1.10;;;1.00;;
17592;SDS011;8915;51.760;14.300;2023-02-18T14:42:11;2.07;;;1.00;;
17592;SDS011;8915;51.760;14.300;2023-02-18T14:44:57;1.00;;;0.90;;
17592;SDS011;8915;51.760;14.300;2023-02-18T14:47:55;1.60;;;1.40;;
17592;SDS011;8915;51.760;14.300;2023-02-18T14:50:43;1.00;;;1.00;;
17592;SDS011;8915;51.760;14.300;2023-02-18T14:53:13;0.87;;;0.87;;
17592;SDS011;8915;51.760;14.300;2023-02-18T14:55:44;1.30;;;1.20;;
17592;SDS011;8915;51.760;14.300;2023-02-18T14:58:16;0.90;;;0.90;;
17592;SDS011;8915;51.760;14.300;2023-02-18T15:00:53;0.87;;;0.87;;
17592;SDS011;8915;51.760;14.300;2023-02-18T15:03:19;0.90;;;0.90;;
17592;SDS011;8915;51.760;14.300;2023-02-18T15:05:47;0.73;;;0.73;;
17592;SDS011;8915;51.760;14.300;2023-02-18T15:08:15;0.80;;;0.80;;
17592;SDS011;8915;51.760;14.300;2023-02-18T15:10:43;0.77;;;0.70;;
17592;SDS011;8915;51.760;14.300;2023-02-18T15:13:17;0.80;;;0.80;;
17592;SDS011;8915;51.760;14.300;2023-02-18T15:15:49;0.80;;;0.80;;
17592;SDS011;8915;51.760;14.300;2023-02-18T15:18:20;0.80;;;0.80;;
17592;SDS011;8915;51.760;14.300;2023-02-18T15:20:51;0.80;;;0.80;;
17592;SDS011;8915;51.760;14.300;2023-02-18T15:23:18;0.80;;;0.80;;
17592;SDS011;8915;51.760;14.300;2023-02-18T15:25:45;0.80;;;0.80;;
17592;SDS011;8915;51.760;14.300;2023-02-18T15:28:23;1.17;;;0.70;;
17592;SDS011;8915;51.760;14.300;2023-02-18T15:30:52;0.70;;;0.70;;
17592;SDS011;8915;51.760;14.300;2023-02-18T15:33:20;1.10;;;0.80;;
17592;SDS011;8915;51.760;14.300;2023-02-18T15:35:47;3.47;;;1.50;;